Time;durP1;ratioP1;P1;durP2;ratioP2;P2;SDS_P1;SDS_P2;PMS_P1;PMS_P2;Temp;Humidity;BMP_temperature;BMP_pressure;BME280_temperature;BME280_humidity;BME280_pressure;Samples;Min_cycle;Max_cycle;Signal;HPM_P1;HPM_P2
2022/03/26 00:00:31;;;;;;;34.83;17.87;;;8.40;70.70;;;;;;5026094;28;20478;-86
2022/03/26 00:03:18;;;;;;;40.03;19.03;;;8.40;69.90;;;;;;5033197;28;20477;-86
2022/03/26 00:06:07;;;;;;;28.57;16.37;;;8.30;69.80;;;;;;5031889;28;20446;-86
2022/03/26 00:08:53;;;;;;;29.37;18.10;;;8.30;70.70;;;;;;5031231;28;20398;-86
2022/03/26 00:11:39;;;;;;;27.17;16.47;;;8.30;70.90;;;;;;5031059;28;20446;-87
2022/03/26 00:14:24;;;;;;;34.90;16.70;;;8.20;69.70;;;;;;5027784;28;20506;-87
2022/03/26 00:17:10;;;;;;;34.83;16.20;;;8.20;71.00;;;;;;5030479;28;20945;-86
2022/03/26 00:19:57;;;;;;;25.77;16.53;;;8.00;72.00;;;;;;5030941;28;20440;-86
2022/03/26 00:22:43;;;;;;;31.77;17.37;;;8.00;71.80;;;;;;5030991;28;20434;-86
2022/03/26 00:25:28;;;;;;;23.10;15.93;;;8.10;71.10;;;;;;5026819;28;20488;-86
2022/03/26 00:28:14;;;;;;;34.40;18.03;;;8.20;70.70;;;;;;5030895;28;20429;-86
2022/03/26 00:31:00;;;;;;;29.90;17.13;;;8.10;69.00;;;;;;5030037;28;20497;-86
2022/03/26 00:33:46;;;;;;;28.57;16.87;;;8.20;69.50;;;;;;5029699;28;20793;-86
2022/03/26 00:36:33;;;;;;;29.10;16.30;;;8.30;70.40;;;;;;5027965;28;20539;-85
2022/03/26 00:39:19;;;;;;;34.20;16.00;;;8.40;70.80;;;;;;5031771;28;20505;-88
2022/03/26 00:42:08;;;;;;;34.23;15.50;;;8.30;71.60;;;;;;5034329;28;20421;-87
2022/03/26 00:44:53;;;;;;;26.40;15.87;;;8.20;71.90;;;;;;5030324;28;20509;-87
2022/03/26 00:47:39;;;;;;;30.00;16.13;;;8.10;72.30;;;;;;5029111;28;20923;-86
2022/03/26 00:50:25;;;;;;;30.27;16.17;;;8.00;73.30;;;;;;5029402;28;20449;-86
2022/03/26 00:53:13;;;;;;;25.47;15.80;;;7.80;73.30;;;;;;5032141;28;20896;-86
2022/03/26 00:55:59;;;;;;;29.50;16.43;;;7.60;75.40;;;;;;5025645;28;20421;-86
2022/03/26 00:58:45;;;;;;;31.13;15.73;;;7.60;75.80;;;;;;5031925;28;20439;-86
2022/03/26 01:01:31;;;;;;;31.87;16.60;;;7.60;76.20;;;;;;5023630;28;20449;-86
2022/03/26 01:04:17;;;;;;;30.50;16.87;;;7.40;75.20;;;;;;5033958;28;20467;-86
2022/03/26 01:07:02;;;;;;;34.67;17.30;;;7.40;75.50;;;;;;5028554;28;20487;-86
2022/03/26 01:09:50;;;;;;;24.63;16.10;;;7.30;77.20;;;;;;5029713;28;20476;-87
2022/03/26 01:12:35;;;;;;;28.77;16.83;;;7.30;76.50;;;;;;5033442;28;20511;-86
2022/03/26 01:15:22;;;;;;;25.07;16.63;;;7.20;77.30;;;;;;5026358;28;20473;-86
2022/03/26 01:18:07;;;;;;;36.10;17.10;;;7.20;76.40;;;;;;5028510;28;20460;-86
2022/03/26 01:20:53;;;;;;;33.37;16.23;;;7.10;76.50;;;;;;5026939;28;20935;-86
2022/03/26 01:23:39;;;;;;;30.13;16.40;;;6.90;77.80;;;;;;5028253;28;20915;-85
2022/03/26 01:26:26;;;;;;;30.30;16.33;;;6.70;78.70;;;;;;5026977;28;20501;-85
2022/03/26 01:29:12;;;;;;;33.70;16.90;;;6.60;79.90;;;;;;5028037;28;20452;-85
2022/03/26 01:31:58;;;;;;;27.93;18.63;;;6.40;81.90;;;;;;5025934;28;20438;-86
2022/03/26 01:34:46;;;;;;;28.97;15.97;;;6.40;81.70;;;;;;5026632;28;20502;-86
2022/03/26 01:37:32;;;;;;;28.67;15.77;;;6.40;82.90;;;;;;5027449;28;20458;-85
2022/03/26 01:40:17;;;;;;;26.77;16.53;;;6.30;83.00;;;;;;5038231;28;20387;-85
2022/03/26 01:43:06;;;;;;;42.47;17.30;;;6.20;84.60;;;;;;5032355;28;20452;-85
2022/03/26 01:45:52;;;;;;;31.40;17.20;;;6.30;84.00;;;;;;5032484;28;20450;-85
2022/03/26 01:48:38;;;;;;;32.00;15.93;;;6.30;83.70;;;;;;5030739;28;20442;-85
2022/03/26 01:51:23;;;;;;;28.00;15.30;;;6.30;83.90;;;;;;5028345;28;20431;-85
2022/03/26 01:54:09;;;;;;;25.93;15.83;;;6.00;84.20;;;;;;5030357;28;20532;-88
2022/03/26 01:56:55;;;;;;;25.60;16.03;;;6.00;87.10;;;;;;5032610;28;20471;-85
2022/03/26 01:59:43;;;;;;;27.03;15.73;;;6.10;85.80;;;;;;5031713;28;20400;-86
2022/03/26 02:02:29;;;;;;;28.87;16.50;;;6.00;86.90;;;;;;5030364;28;20460;-86
2022/03/26 02:05:16;;;;;;;31.20;17.00;;;5.90;86.80;;;;;;5024212;28;20548;-85
2022/03/26 02:08:04;;;;;;;31.47;18.53;;;5.80;87.80;;;;;;5030773;28;20439;-86
2022/03/26 02:10:50;;;;;;;28.30;16.80;;;5.70;87.70;;;;;;5027808;28;20508;-86
2022/03/26 02:13:54;;;;;;;32.60;19.90;;;5.60;89.10;;;;;;5025322;28;20442;-86
2022/03/26 02:16:42;;;;;;;35.07;18.47;;;5.40;90.30;;;;;;5027309;28;20436;-86
2022/03/26 02:19:28;;;;;;;38.17;18.73;;;5.20;90.90;;;;;;5030674;28;20451;-86
2022/03/26 02:22:16;;;;;;;31.57;16.33;;;5.30;91.40;;;;;;5031419;28;20419;-87
2022/03/26 02:25:02;;;;;;;28.37;17.00;;;5.60;91.30;;;;;;5026114;28;20608;-87
2022/03/26 02:27:48;;;;;;;31.20;16.83;;;5.70;90.40;;;;;;5027625;28;20436;-86
2022/03/26 02:30:34;;;;;;;38.30;18.97;;;5.50;90.30;;;;;;5029531;28;20454;-86
2022/03/26 02:33:19;;;;;;;27.17;16.73;;;5.50;90.80;;;;;;5026661;28;20485;-86
2022/03/26 02:36:05;;;;;;;29.70;18.90;;;5.30;90.90;;;;;;5023797;28;20411;-86
2022/03/26 02:38:53;;;;;;;31.20;17.27;;;5.20;91.10;;;;;;5031953;28;21024;-86
2022/03/26 02:41:38;;;;;;;38.90;16.67;;;5.20;92.20;;;;;;5026514;28;20427;-87
2022/03/26 02:44:24;;;;;;;38.53;17.20;;;5.20;92.40;;;;;;5026856;28;20464;-86
2022/03/26 02:47:11;;;;;;;33.40;18.23;;;5.20;93.10;;;;;;5027080;28;20391;-87
2022/03/26 02:49:56;;;;;;;39.03;18.53;;;5.10;92.70;;;;;;5029280;28;20442;-86
2022/03/26 02:52:42;;;;;;;30.23;17.60;;;5.10;92.90;;;;;;5027132;28;20778;-86
2022/03/26 02:55:29;;;;;;;32.03;18.87;;;5.00;92.90;;;;;;5038391;22;20476;-70
2022/03/26 02:58:15;;;;;;;29.57;18.57;;;4.90;93.90;;;;;;5013307;28;20451;-72
2022/03/26 03:01:01;;;;;;;27.93;16.57;;;5.00;94.70;;;;;;5011968;28;20896;-72
2022/03/26 03:03:47;;;;;;;30.60;19.17;;;5.00;94.50;;;;;;5006658;28;21331;-71
2022/03/26 03:06:33;;;;;;;30.77;19.47;;;5.00;94.70;;;;;;5012607;28;20403;-73
2022/03/26 03:09:18;;;;;;;29.13;18.23;;;5.10;94.80;;;;;;5012067;28;20454;-72
2022/03/26 03:12:07;;;;;;;34.47;17.80;;;5.30;94.40;;;;;;5014072;28;20444;-73
2022/03/26 03:14:52;;;;;;;31.30;17.60;;;5.10;94.60;;;;;;5009613;28;20441;-72
2022/03/26 03:17:38;;;;;;;27.17;17.20;;;5.00;94.50;;;;;;5008861;28;20485;-72
2022/03/26 03:20:25;;;;;;;31.40;17.80;;;5.00;94.90;;;;;;5020467;28;20769;-71
2022/03/26 03:23:11;;;;;;;31.87;19.10;;;4.90;95.80;;;;;;5011904;28;20431;-71
2022/03/26 03:25:57;;;;;;;35.33;17.83;;;4.80;95.70;;;;;;5016024;28;21172;-72
2022/03/26 03:28:44;;;;;;;27.20;17.20;;;4.90;95.60;;;;;;5010640;28;20443;-72
2022/03/26 03:31:30;;;;;;;33.57;18.73;;;5.00;94.80;;;;;;5019187;28;20453;-72
2022/03/26 03:34:16;;;;;;;35.10;19.40;;;4.90;95.50;;;;;;5009998;28;20473;-72
2022/03/26 03:37:01;;;;;;;32.97;18.87;;;4.80;95.60;;;;;;5014607;28;20413;-72
2022/03/26 03:39:47;;;;;;;34.77;18.70;;;4.80;95.70;;;;;;5012358;28;20584;-72
2022/03/26 03:42:32;;;;;;;33.13;18.20;;;4.60;95.50;;;;;;5013190;28;20427;-72
2022/03/26 03:45:20;;;;;;;29.93;19.00;;;4.60;95.70;;;;;;5014773;28;20930;-71
2022/03/26 03:48:06;;;;;;;30.13;18.93;;;4.70;95.80;;;;;;5023090;28;20445;-72
2022/03/26 03:50:51;;;;;;;34.73;19.27;;;4.70;96.10;;;;;;5007160;28;20457;-72
2022/03/26 03:53:37;;;;;;;30.77;18.43;;;4.60;95.70;;;;;;5013254;28;20485;-71
2022/03/26 03:56:22;;;;;;;33.90;19.73;;;4.50;96.20;;;;;;5019912;28;20459;-71
2022/03/26 03:59:08;;;;;;;31.07;18.83;;;4.60;96.30;;;;;;5014073;28;20464;-72
2022/03/26 04:01:56;;;;;;;31.67;18.20;;;4.70;95.70;;;;;;5019435;28;20420;-71
2022/03/26 04:04:43;;;;;;;28.70;17.87;;;4.50;96.60;;;;;;5009993;28;20445;-73
2022/03/26 04:07:28;;;;;;;27.10;18.17;;;4.40;96.60;;;;;;5016562;28;20469;-71
2022/03/26 04:10:14;;;;;;;35.23;20.40;;;4.20;97.80;;;;;;5022942;28;20989;-72
2022/03/26 04:13:00;;;;;;;31.80;19.80;;;4.50;97.40;;;;;;5008728;28;20544;-72
2022/03/26 04:15:45;;;;;;;30.50;18.97;;;4.50;97.00;;;;;;5018568;28;20930;-72
2022/03/26 04:18:32;;;;;;;30.00;17.30;;;4.60;97.00;;;;;;5015932;28;20452;-73
2022/03/26 04:21:18;;;;;;;40.40;19.23;;;4.70;97.10;;;;;;5017378;28;20440;-71
2022/03/26 04:24:04;;;;;;;29.67;18.33;;;4.40;97.10;;;;;;5010190;28;20967;-71
2022/03/26 04:26:49;;;;;;;33.43;18.90;;;4.20;97.30;;;;;;5014096;28;20468;-71
2022/03/26 04:29:35;;;;;;;30.67;18.87;;;4.30;97.80;;;;;;5013242;28;20951;-72
2022/03/26 04:32:21;;;;;;;54.53;20.10;;;4.10;98.00;;;;;;5011197;28;21511;-72
2022/03/26 04:35:10;;;;;;;33.43;18.20;;;4.10;98.80;;;;;;5015199;28;20886;-72
2022/03/26 04:37:56;;;;;;;33.20;18.63;;;4.20;98.80;;;;;;5011061;28;20465;-71
2022/03/26 04:40:41;;;;;;;28.23;18.00;;;4.10;99.40;;;;;;5015491;28;20417;-72
2022/03/26 04:43:27;;;;;;;32.50;18.33;;;4.00;99.90;;;;;;5006575;28;20500;-72
2022/03/26 04:46:13;;;;;;;46.07;19.17;;;4.10;99.90;;;;;;5017145;28;20621;-72
2022/03/26 04:48:58;;;;;;;32.13;19.40;;;4.00;99.50;;;;;;5018411;28;20444;-71
2022/03/26 04:51:46;;;;;;;30.97;18.60;;;4.10;99.90;;;;;;5016455;28;20469;-72
2022/03/26 04:54:31;;;;;;;29.30;17.20;;;4.10;99.90;;;;;;5006419;28;21028;-73
2022/03/26 04:57:18;;;;;;;35.90;20.10;;;4.10;99.90;;;;;;5017701;28;20537;-72
2022/03/26 05:00:04;;;;;;;32.80;17.80;;;3.90;99.90;;;;;;5012803;28;20942;-72
2022/03/26 05:02:49;;;;;;;54.77;19.83;;;4.10;99.90;;;;;;5009385;28;20198;-72
2022/03/26 05:05:35;;;;;;;35.37;19.13;;;4.10;99.90;;;;;;5016805;28;20519;-72
2022/03/26 05:08:22;;;;;;;37.33;18.10;;;4.10;99.90;;;;;;5015552;28;20464;-72
2022/03/26 05:11:08;;;;;;;32.83;18.00;;;4.10;99.90;;;;;;5014794;28;20455;-71
2022/03/26 05:13:53;;;;;;;33.90;18.93;;;4.10;99.90;;;;;;5011431;28;20464;-72
2022/03/26 05:16:39;;;;;;;31.63;18.63;;;4.10;99.90;;;;;;5015905;28;20819;-72
2022/03/26 05:19:25;;;;;;;32.13;17.50;;;4.00;99.90;;;;;;5020587;28;20437;-72
2022/03/26 05:22:11;;;;;;;31.00;19.13;;;4.10;99.90;;;;;;5010439;28;20809;-72
2022/03/26 05:24:58;;;;;;;31.17;17.50;;;4.10;99.90;;;;;;5015595;28;20453;-71
2022/03/26 05:27:45;;;;;;;41.53;20.77;;;4.10;99.90;;;;;;5018601;28;20426;-72
2022/03/26 05:30:30;;;;;;;32.30;19.40;;;4.10;99.90;;;;;;5012105;28;20988;-71
2022/03/26 05:33:16;;;;;;;25.10;17.30;;;4.00;99.90;;;;;;5012681;28;20581;-72
2022/03/26 05:36:02;;;;;;;36.97;18.67;;;4.20;99.90;;;;;;5009240;28;20424;-71
2022/03/26 05:38:48;;;;;;;32.67;18.63;;;4.50;99.90;;;;;;5011871;28;20480;-72
2022/03/26 05:41:34;;;;;;;37.27;19.00;;;4.70;99.90;;;;;;5002490;28;20442;-73
2022/03/26 05:44:20;;;;;;;31.27;18.37;;;4.80;99.90;;;;;;5014970;28;20444;-71
2022/03/26 05:47:07;;;;;;;31.40;19.67;;;5.00;99.90;;;;;;5014602;28;20404;-72
2022/03/26 05:49:53;;;;;;;33.93;17.40;;;5.10;99.90;;;;;;5010930;28;20471;-72
2022/03/26 05:52:40;;;;;;;32.70;17.90;;;5.20;99.90;;;;;;5010770;28;20967;-72
2022/03/26 05:55:25;;;;;;;36.63;19.20;;;5.30;99.90;;;;;;5011392;28;20425;-71
2022/03/26 05:58:12;;;;;;;33.60;18.43;;;5.60;99.90;;;;;;5014924;28;20419;-72
2022/03/26 06:00:58;;;;;;;30.90;18.90;;;5.70;99.90;;;;;;5007583;28;20424;-72
2022/03/26 06:03:44;;;;;;;34.00;18.83;;;5.90;99.90;;;;;;5012065;28;20392;-73
2022/03/26 06:06:29;;;;;;;38.27;19.07;;;6.00;99.90;;;;;;5014393;28;20475;-72
2022/03/26 06:09:15;;;;;;;29.10;17.80;;;6.10;99.90;;;;;;5010090;28;20519;-72
2022/03/26 06:12:01;;;;;;;34.97;19.87;;;6.00;99.90;;;;;;5010381;28;20435;-71
2022/03/26 06:14:48;;;;;;;39.40;20.23;;;6.20;99.90;;;;;;5015722;28;20529;-71
2022/03/26 06:17:35;;;;;;;35.23;19.07;;;6.30;99.90;;;;;;5014177;28;20497;-72
2022/03/26 06:20:20;;;;;;;38.10;20.17;;;6.40;99.90;;;;;;5006331;28;20445;-72
2022/03/26 06:23:07;;;;;;;37.30;18.53;;;6.70;99.90;;;;;;5011179;28;20428;-72
2022/03/26 06:25:53;;;;;;;33.83;20.33;;;6.70;99.90;;;;;;5008822;28;20491;-72
2022/03/26 06:28:39;;;;;;;32.00;18.20;;;6.80;99.90;;;;;;5004309;28;20454;-71
2022/03/26 06:31:26;;;;;;;35.40;18.33;;;7.00;99.90;;;;;;5008773;28;20475;-72
2022/03/26 06:34:12;;;;;;;33.00;18.40;;;7.00;99.90;;;;;;5007530;28;20918;-73
2022/03/26 06:36:58;;;;;;;35.77;19.27;;;7.20;99.90;;;;;;5013167;28;20482;-72
2022/03/26 06:39:43;;;;;;;44.40;18.87;;;7.40;99.90;;;;;;5010965;28;20459;-71
2022/03/26 06:42:29;;;;;;;28.20;18.83;;;7.50;99.90;;;;;;5012720;28;20577;-72
2022/03/26 06:45:15;;;;;;;37.03;18.43;;;7.60;99.90;;;;;;5012857;28;20400;-72
2022/03/26 06:48:02;;;;;;;33.53;17.93;;;7.70;99.90;;;;;;5015911;28;20595;-72
2022/03/26 06:50:48;;;;;;;39.60;19.67;;;7.80;99.30;;;;;;5004241;28;20972;-72
2022/03/26 06:53:34;;;;;;;35.43;19.97;;;7.90;99.90;;;;;;5016282;28;20460;-72
2022/03/26 06:56:19;;;;;;;34.97;18.50;;;8.00;99.90;;;;;;5015384;28;20457;-72
2022/03/26 06:59:05;;;;;;;32.23;19.27;;;8.20;99.60;;;;;;5016370;28;20447;-72
2022/03/26 07:01:52;;;;;;;33.40;20.30;;;8.30;99.70;;;;;;5015391;28;20445;-72
2022/03/26 07:04:39;;;;;;;36.10;19.80;;;8.50;98.40;;;;;;5023272;28;20421;-72
2022/03/26 07:07:24;;;;;;;28.57;17.67;;;8.70;95.40;;;;;;5018853;28;20474;-72
2022/03/26 07:10:11;;;;;;;35.87;20.63;;;8.90;94.70;;;;;;5018526;28;20565;-72
2022/03/26 07:12:57;;;;;;;29.73;19.40;;;9.00;94.90;;;;;;5014746;28;20446;-72
2022/03/26 07:15:43;;;;;;;29.93;18.57;;;9.20;94.80;;;;;;5023470;28;20913;-72
2022/03/26 07:18:29;;;;;;;32.07;18.30;;;9.40;93.60;;;;;;5012012;28;20448;-72
2022/03/26 07:21:15;;;;;;;39.23;19.00;;;9.60;93.80;;;;;;5016574;28;20423;-74
2022/03/26 07:24:01;;;;;;;38.40;18.50;;;9.70;94.00;;;;;;5019901;28;20421;-72
2022/03/26 07:26:47;;;;;;;33.87;17.33;;;10.00;91.60;;;;;;5012616;28;20556;-72
2022/03/26 07:29:33;;;;;;;34.47;20.17;;;10.10;89.30;;;;;;5013327;28;20607;-73
2022/03/26 07:32:19;;;;;;;35.90;21.73;;;10.40;76.10;;;;;;5014644;28;20963;-74
2022/03/26 07:35:05;;;;;;;41.33;20.10;;;10.60;70.60;;;;;;5015640;28;20792;-73
2022/03/26 07:37:52;;;;;;;37.07;19.37;;;10.80;67.10;;;;;;5010695;28;20514;-73
2022/03/26 07:40:38;;;;;;;30.40;18.70;;;11.00;63.70;;;;;;5009466;28;20446;-73
2022/03/26 07:43:24;;;;;;;34.77;18.50;;;11.10;63.30;;;;;;5017479;28;20908;-72
2022/03/26 07:46:09;;;;;;;36.07;20.17;;;11.20;61.00;;;;;;5012172;28;20412;-71
2022/03/26 07:48:55;;;;;;;41.10;18.83;;;11.40;61.40;;;;;;5014985;28;20800;-72
2022/03/26 07:51:40;;;;;;;30.60;18.10;;;11.40;59.10;;;;;;5004976;28;20436;-73
2022/03/26 07:54:28;;;;;;;31.77;19.67;;;11.60;59.50;;;;;;5014046;28;20430;-72
2022/03/26 07:57:14;;;;;;;36.00;20.80;;;11.70;57.60;;;;;;5013731;28;20411;-72
2022/03/26 07:59:59;;;;;;;43.83;21.17;;;11.80;57.80;;;;;;5010395;28;20519;-71
2022/03/26 08:02:45;;;;;;;34.03;20.57;;;12.00;57.30;;;;;;5015729;28;20437;-73
2022/03/26 08:05:31;;;;;;;34.37;20.87;;;12.10;58.10;;;;;;5026104;28;20426;-73
2022/03/26 08:08:17;;;;;;;42.60;21.73;;;12.20;53.60;;;;;;5014729;28;20439;-72
2022/03/26 08:11:04;;;;;;;38.87;20.37;;;12.40;53.40;;;;;;5014772;28;20491;-73
2022/03/26 08:13:49;;;;;;;35.60;20.27;;;12.50;52.10;;;;;;5014285;28;20404;-72
2022/03/26 08:16:35;;;;;;;32.60;19.57;;;12.50;52.40;;;;;;5012509;28;20432;-73
2022/03/26 08:19:21;;;;;;;43.70;20.77;;;12.70;53.40;;;;;;5015376;28;21002;-71
2022/03/26 08:22:06;;;;;;;45.10;22.90;;;12.80;57.50;;;;;;5012120;28;20859;-72
2022/03/26 08:24:52;;;;;;;36.37;20.57;;;12.90;56.60;;;;;;5014843;28;20479;-72
2022/03/26 08:27:39;;;;;;;37.63;21.33;;;13.10;54.40;;;;;;5006211;28;20498;-71
2022/03/26 08:30:24;;;;;;;41.57;21.20;;;13.20;50.00;;;;;;5013996;28;20419;-72
2022/03/26 08:33:10;;;;;;;38.43;22.43;;;13.30;52.60;;;;;;5014512;28;20591;-70
2022/03/26 08:35:56;;;;;;;32.60;20.73;;;13.40;48.70;;;;;;5010521;28;20901;-71
2022/03/26 08:38:44;;;;;;;39.27;21.13;;;13.60;51.70;;;;;;5006179;28;20558;-71
2022/03/26 08:41:30;;;;;;;35.70;21.83;;;13.70;50.20;;;;;;5017297;28;20506;-71
2022/03/26 08:44:17;;;;;;;39.47;20.87;;;13.80;48.20;;;;;;5007945;28;20594;-72
2022/03/26 08:47:05;;;;;;;38.27;21.67;;;13.90;48.50;;;;;;5044050;23;20525;-73
2022/03/26 08:49:51;;;;;;;41.80;20.83;;;13.90;43.50;;;;;;5024207;28;20478;-73
2022/03/26 08:52:37;;;;;;;45.90;21.23;;;14.00;44.40;;;;;;5030115;28;20536;-73
2022/03/26 08:55:23;;;;;;;35.00;20.70;;;14.10;45.60;;;;;;5039569;28;20418;-73
2022/03/26 08:58:10;;;;;;;45.83;22.00;;;14.20;46.10;;;;;;5008643;28;20849;-71
2022/03/26 09:00:57;;;;;;;40.40;20.97;;;14.30;45.10;;;;;;5005027;28;20449;-74
2022/03/26 09:03:43;;;;;;;39.33;21.43;;;14.40;45.40;;;;;;5008912;28;20438;-74
2022/03/26 09:06:29;;;;;;;35.90;19.73;;;14.60;43.40;;;;;;5006335;28;20456;-74
2022/03/26 09:09:16;;;;;;;31.37;19.10;;;14.70;42.50;;;;;;5002747;28;20534;-74
2022/03/26 09:12:01;;;;;;;38.17;21.50;;;14.80;42.90;;;;;;5014096;28;20471;-75
2022/03/26 09:14:47;;;;;;;37.47;19.90;;;14.90;41.10;;;;;;5002298;28;20862;-74
2022/03/26 09:17:34;;;;;;;37.87;21.83;;;15.00;41.80;;;;;;5007570;28;20797;-71
2022/03/26 09:20:20;;;;;;;35.80;19.63;;;15.10;41.30;;;;;;5013361;28;20402;-74
2022/03/26 09:23:07;;;;;;;35.77;21.00;;;15.20;42.10;;;;;;5005711;28;20760;-73
2022/03/26 09:25:52;;;;;;;32.00;19.37;;;15.30;40.70;;;;;;5016165;28;20488;-74
2022/03/26 09:28:38;;;;;;;48.23;21.73;;;15.40;42.80;;;;;;4999651;28;20462;-73
2022/03/26 09:31:23;;;;;;;33.17;21.30;;;15.50;40.90;;;;;;5000033;28;20437;-74
2022/03/26 09:34:10;;;;;;;31.80;20.43;;;15.60;40.10;;;;;;5007508;28;20800;-73
2022/03/26 09:36:56;;;;;;;32.43;19.87;;;15.70;41.40;;;;;;5007767;28;20974;-73
2022/03/26 09:39:41;;;;;;;34.10;21.37;;;15.80;40.60;;;;;;5008977;28;20784;-74
2022/03/26 09:42:27;;;;;;;32.63;21.03;;;15.90;40.40;;;;;;5000882;28;20444;-72
2022/03/26 09:45:13;;;;;;;40.80;21.17;;;16.00;39.90;;;;;;5012665;28;20792;-72
2022/03/26 09:47:58;;;;;;;32.70;18.73;;;16.00;42.90;;;;;;5003299;28;20925;-73
2022/03/26 09:50:47;;;;;;;34.47;19.73;;;16.20;38.70;;;;;;5000587;28;20524;-73
2022/03/26 09:53:34;;;;;;;30.30;20.17;;;16.30;37.70;;;;;;5000382;28;20974;-73
2022/03/26 09:56:21;;;;;;;30.90;18.90;;;16.40;36.50;;;;;;4997389;28;20551;-74
2022/03/26 09:59:07;;;;;;;31.87;18.63;;;16.50;35.80;;;;;;4998567;28;20588;-75
2022/03/26 10:01:53;;;;;;;35.60;18.50;;;16.60;34.50;;;;;;4995554;28;20431;-74
2022/03/26 10:04:39;;;;;;;33.30;20.00;;;16.70;33.70;;;;;;4997225;28;20447;-74
2022/03/26 10:07:30;;;;;;;33.03;18.73;;;16.70;34.70;;;;;;5004397;28;20490;-74
2022/03/26 10:10:24;;;;;;;36.00;20.67;;;16.80;35.20;;;;;;4999736;28;20470;-75
2022/03/26 10:13:10;;;;;;;32.33;19.00;;;17.00;33.90;;;;;;5001596;28;20598;-75
2022/03/26 10:16:03;;;;;;;30.27;17.90;;;17.00;33.70;;;;;;5004285;28;20468;-74
2022/03/26 10:18:50;;;;;;;37.47;19.90;;;17.10;32.80;;;;;;5004455;28;20451;-74
2022/03/26 10:21:36;;;;;;;32.80;18.30;;;17.20;34.60;;;;;;4999596;28;20457;-73
2022/03/26 10:24:26;;;;;;;33.87;18.67;;;17.30;35.00;;;;;;5002574;28;20417;-73
2022/03/26 10:27:12;;;;;;;30.40;17.80;;;17.40;30.50;;;;;;5010366;28;20789;-73
2022/03/26 10:29:59;;;;;;;28.93;17.27;;;17.60;32.00;;;;;;5012561;28;20524;-73
2022/03/26 10:32:46;;;;;;;27.97;17.63;;;17.80;31.00;;;;;;5000241;28;20492;-73
2022/03/26 10:35:31;;;;;;;26.13;16.60;;;17.90;28.90;;;;;;5006720;28;20441;-73
2022/03/26 10:38:18;;;;;;;33.90;19.10;;;18.00;27.60;;;;;;5003434;28;20441;-73
2022/03/26 10:41:07;;;;;;;30.17;18.10;;;18.10;29.00;;;;;;5005319;28;20441;-73
2022/03/26 10:44:08;;;;;;;30.17;17.73;;;18.30;28.00;;;;;;5010850;28;20438;-73
2022/03/26 10:46:55;;;;;;;29.07;17.03;;;18.40;28.40;;;;;;5000377;28;20553;-73
2022/03/26 10:49:41;;;;;;;29.60;17.13;;;18.50;27.70;;;;;;4999937;28;20442;-73
2022/03/26 10:52:32;;;;;;;33.73;17.00;;;18.60;26.50;;;;;;5005889;28;20546;-73
2022/03/26 10:55:19;;;;;;;30.60;18.00;;;18.70;27.10;;;;;;5003512;28;21030;-73
2022/03/26 10:58:06;;;;;;;29.90;16.47;;;18.70;25.30;;;;;;5011255;28;20568;-73
2022/03/26 11:00:52;;;;;;;24.83;16.43;;;18.70;25.30;;;;;;5002795;28;20432;-73
2022/03/26 11:03:38;;;;;;;28.20;15.77;;;18.70;25.30;;;;;;5003078;28;20484;-73
2022/03/26 11:06:26;;;;;;;28.77;16.83;;;18.80;25.40;;;;;;5006316;28;20833;-73
2022/03/26 11:09:13;;;;;;;28.30;16.37;;;18.90;26.10;;;;;;5001435;28;20442;-73
2022/03/26 11:11:59;;;;;;;29.00;14.87;;;19.00;26.50;;;;;;5006186;28;20461;-72
2022/03/26 11:14:47;;;;;;;22.83;16.00;;;19.00;25.60;;;;;;5003932;28;20445;-72
2022/03/26 11:17:45;;;;;;;35.87;16.43;;;19.10;25.70;;;;;;5003226;28;20474;-73
2022/03/26 11:20:53;;;;;;;26.10;16.10;;;19.20;25.00;;;;;;4998117;28;20582;-73
2022/03/26 11:23:54;;;;;;;28.00;16.07;;;19.20;24.30;;;;;;5005430;28;20463;-73
2022/03/26 11:26:51;;;;;;;27.53;16.93;;;19.30;25.00;;;;;;4999186;28;20561;-73
2022/03/26 11:29:58;;;;;;;24.40;15.47;;;19.40;24.40;;;;;;5005280;28;20597;-73
2022/03/26 11:32:47;;;;;;;25.30;14.60;;;19.50;24.70;;;;;;5003705;28;20558;-72
2022/03/26 11:35:34;;;;;;;24.10;15.93;;;19.60;24.80;;;;;;5004122;28;20745;-73
2022/03/26 11:38:19;;;;;;;25.30;13.80;;;19.50;24.00;;;;;;5004483;28;20435;-72
2022/03/26 11:41:07;;;;;;;23.10;15.97;;;19.50;23.80;;;;;;5007062;28;20450;-73
2022/03/26 11:43:55;;;;;;;25.07;13.83;;;19.60;24.20;;;;;;5004610;28;20962;-73
2022/03/26 11:52:52;;;;;;;17.03;11.63;;;19.60;24.50;;;;;;4976241;28;20600;-73
2022/03/26 11:55:46;;;;;;;22.43;14.13;;;19.60;23.90;;;;;;5006427;28;20450;-73
2022/03/26 11:58:32;;;;;;;21.43;13.40;;;19.70;23.10;;;;;;5005466;28;20501;-73
2022/03/26 12:01:18;;;;;;;18.73;10.70;;;19.70;22.40;;;;;;5010572;28;20814;-75
2022/03/26 12:04:10;;;;;;;21.77;11.57;;;19.70;22.80;;;;;;5009065;28;20437;-72
2022/03/26 12:06:59;;;;;;;20.97;13.17;;;19.70;21.40;;;;;;5005963;28;20453;-73
2022/03/26 12:09:45;;;;;;;21.77;12.73;;;19.70;21.10;;;;;;5005915;28;20453;-73
2022/03/26 12:12:49;;;;;;;20.67;11.53;;;19.80;22.10;;;;;;5004906;28;20448;-73
2022/03/26 12:15:35;;;;;;;22.60;13.40;;;19.80;21.20;;;;;;5008552;28;20444;-73
2022/03/26 12:18:32;;;;;;;15.63;9.73;;;19.90;21.60;;;;;;5006688;28;20519;-72
2022/03/26 12:21:21;;;;;;;16.20;10.27;;;19.90;20.10;;;;;;5011632;28;20420;-73
2022/03/26 12:24:17;;;;;;;20.23;11.23;;;20.10;22.10;;;;;;5012841;28;21053;-72
2022/03/26 12:27:06;;;;;;;18.73;11.50;;;20.40;21.90;;;;;;5009429;28;20672;-73
2022/03/26 12:29:54;;;;;;;24.43;11.03;;;20.60;22.40;;;;;;5005123;28;21067;-72
2022/03/26 12:32:41;;;;;;;24.00;12.80;;;20.80;21.20;;;;;;5006408;28;20450;-73
2022/03/26 12:35:27;;;;;;;20.10;11.43;;;20.90;21.30;;;;;;5007187;28;20433;-73
2022/03/26 12:38:13;;;;;;;20.10;11.47;;;20.90;21.80;;;;;;5008048;28;20462;-73
2022/03/26 12:41:02;;;;;;;22.20;10.00;;;21.00;21.40;;;;;;5005878;28;20588;-73
2022/03/26 12:43:54;;;;;;;18.40;10.13;;;21.20;21.70;;;;;;5007745;28;20588;-73
2022/03/26 12:46:39;;;;;;;17.97;11.97;;;21.40;21.10;;;;;;5001391;28;20477;-73
2022/03/26 12:49:25;;;;;;;17.07;10.47;;;21.40;19.60;;;;;;5001184;28;20442;-73
2022/03/26 12:52:10;;;;;;;15.63;9.30;;;21.30;19.30;;;;;;5009538;28;20441;-73
2022/03/26 12:54:57;;;;;;;19.53;10.67;;;21.40;21.30;;;;;;5006583;28;20466;-73
2022/03/26 13:01:02;;;;;;;17.63;9.23;;;21.50;19.50;;;;;;4999515;28;20458;-73
2022/03/26 13:03:47;;;;;;;21.73;10.80;;;21.60;19.50;;;;;;5007772;28;20589;-73
2022/03/26 13:06:33;;;;;;;16.83;9.97;;;21.70;19.00;;;;;;5005930;28;20831;-73
2022/03/26 13:09:18;;;;;;;20.73;10.57;;;21.70;19.00;;;;;;4997858;28;20539;-73
2022/03/26 13:12:05;;;;;;;16.23;9.70;;;21.80;19.40;;;;;;5004761;28;20424;-74
2022/03/26 13:14:52;;;;;;;20.30;8.30;;;22.00;19.90;;;;;;5002947;28;20546;-74
2022/03/26 13:17:39;;;;;;;18.10;9.60;;;22.10;19.60;;;;;;4998946;28;20488;-74
2022/03/26 13:20:26;;;;;;;16.60;9.33;;;22.10;19.10;;;;;;5004032;28;20468;-74
2022/03/26 13:23:13;;;;;;;16.20;9.80;;;22.10;18.40;;;;;;5016252;28;20428;-74
2022/03/26 13:25:58;;;;;;;15.80;8.90;;;22.20;18.40;;;;;;5004566;28;20477;-74
2022/03/26 13:28:44;;;;;;;14.17;8.57;;;22.40;17.80;;;;;;4999658;28;21083;-73
2022/03/26 13:31:34;;;;;;;15.87;9.57;;;22.60;17.10;;;;;;5016091;28;20576;-74
2022/03/26 13:34:24;;;;;;;19.77;9.70;;;22.60;17.10;;;;;;5026734;28;20480;-74
2022/03/26 13:37:11;;;;;;;21.57;12.30;;;22.60;17.10;;;;;;5007136;28;20830;-73
2022/03/26 13:39:59;;;;;;;19.60;10.87;;;22.60;17.10;;;;;;5002902;28;20452;-74
2022/03/26 13:42:45;;;;;;;16.10;8.43;;;22.60;18.20;;;;;;5005968;28;20993;-73
2022/03/26 13:45:31;;;;;;;20.30;9.80;;;22.70;18.00;;;;;;4998174;28;20445;-74
2022/03/26 13:48:18;;;;;;;20.00;10.10;;;22.70;17.50;;;;;;5005243;28;20480;-74
2022/03/26 13:51:13;;;;;;;17.53;10.10;;;22.70;18.90;;;;;;5012405;28;20856;-74
2022/03/26 13:54:02;;;;;;;21.07;10.07;;;22.80;19.00;;;;;;5008588;28;20500;-74
2022/03/26 13:56:55;;;;;;;18.70;10.47;;;22.80;17.20;;;;;;5003428;28;20482;-74
2022/03/26 13:59:47;;;;;;;16.13;9.27;;;22.70;17.20;;;;;;5005967;28;20445;-75
2022/03/26 14:02:36;;;;;;;15.13;9.20;;;22.90;17.30;;;;;;5005271;28;20528;-74
2022/03/26 14:05:27;;;;;;;24.10;9.77;;;23.00;17.40;;;;;;5003183;28;20445;-74
2022/03/26 14:08:13;;;;;;;17.60;9.63;;;23.20;17.60;;;;;;5005324;28;20504;-75
2022/03/26 14:10:59;;;;;;;17.10;10.40;;;23.00;17.40;;;;;;5004347;28;20965;-74
2022/03/26 14:13:45;;;;;;;17.40;9.97;;;23.10;18.20;;;;;;5005841;28;20603;-74
2022/03/26 14:16:31;;;;;;;23.03;9.40;;;23.00;18.60;;;;;;5002036;28;20953;-75
2022/03/26 14:19:16;;;;;;;15.93;9.50;;;23.10;17.90;;;;;;5023650;28;20433;-74
2022/03/26 14:22:04;;;;;;;17.23;10.00;;;23.10;18.30;;;;;;5012023;28;20553;-75